Time;durP1;ratioP1;P1;durP2;ratioP2;P2;SDS_P1;SDS_P2;PMS_P1;PMS_P2;Temp;Humidity;BMP_temperature;BMP_pressure;BME280_temperature;BME280_humidity;BME280_pressure;Samples;Min_cycle;Max_cycle;Signal;HPM_P1;HPM_P2
2023/05/30 00:00:45;;;;;;;7.38;2.60;;;;;;;12.69;78.00;102593.34;4980742;28;20466;-83
2023/05/30 00:03:11;;;;;;;8.40;2.42;;;;;;;12.51;79.57;102598.38;4977356;28;20090;-83
2023/05/30 00:05:37;;;;;;;11.27;3.38;;;;;;;12.65;77.73;102593.25;4976384;28;20042;-83
2023/05/30 00:08:02;;;;;;;7.45;2.78;;;;;;;12.61;79.00;102593.09;4980956;28;20034;-83
2023/05/30 00:10:27;;;;;;;9.65;2.83;;;;;;;12.67;78.07;102590.06;4978965;28;20065;-83
2023/05/30 00:12:53;;;;;;;6.88;2.47;;;;;;;12.58;78.53;102587.34;4978087;28;20026;-83
2023/05/30 00:15:19;;;;;;;8.27;2.97;;;;;;;12.69;77.61;102587.72;4961556;28;20187;-83
2023/05/30 00:17:44;;;;;;;9.77;2.78;;;;;;;12.58;78.46;102592.97;4973202;28;20402;-83
2023/05/30 00:20:10;;;;;;;7.97;2.30;;;;;;;12.36;80.45;102592.25;4982288;28;20571;-83
2023/05/30 00:22:41;;;;;;;10.57;3.30;;;;;;;11.95;84.76;102593.19;4997983;28;20516;-83
2023/05/30 00:25:07;;;;;;;8.93;2.40;;;;;;;12.20;81.35;102589.28;4978075;28;20436;-82
2023/05/30 00:27:32;;;;;;;11.98;3.08;;;;;;;12.36;80.38;102592.25;4982089;28;20030;-83
2023/05/30 00:29:58;;;;;;;11.50;2.95;;;;;;;12.43;80.08;102602.91;4976430;28;20046;-83
2023/05/30 00:32:23;;;;;;;7.72;3.08;;;;;;;12.07;82.73;102600.84;4980113;28;20056;-83
2023/05/30 00:34:49;;;;;;;10.23;2.80;;;;;;;12.25;81.63;102607.91;4982058;28;20065;-83
2023/05/30 00:37:15;;;;;;;3.05;2.70;;;;;;;12.33;81.53;102609.81;4976893;28;20427;-83
2023/05/30 00:39:41;;;;;;;10.05;2.97;;;;;;;12.28;82.54;102606.41;4977548;28;20045;-83
2023/05/30 00:42:07;;;;;;;6.97;2.65;;;;;;;12.10;83.33;102605.75;4981719;28;20034;-82
2023/05/30 00:44:32;;;;;;;7.72;2.80;;;;;;;11.95;84.97;102610.88;4973577;28;20396;-83
2023/05/30 00:46:58;;;;;;;7.60;2.90;;;;;;;12.11;83.59;102602.59;4973960;28;20033;-83
2023/05/30 00:49:24;;;;;;;5.38;2.50;;;;;;;12.32;81.51;102604.53;4975114;28;20684;-83
2023/05/30 00:51:51;;;;;;;6.40;2.80;;;;;;;12.44;81.38;102609.34;4965888;28;20547;-83
2023/05/30 00:54:18;;;;;;;14.13;3.63;;;;;;;12.32;81.59;102601.72;4979616;28;20037;-83
2023/05/30 00:56:43;;;;;;;11.32;3.05;;;;;;;11.96;85.85;102597.66;4983353;28;20099;-83
2023/05/30 00:59:08;;;;;;;8.43;2.80;;;;;;;11.94;84.18;102586.78;4975563;28;20058;-83
2023/05/30 01:01:34;;;;;;;7.47;2.45;;;;;;;12.22;84.18;102614.22;4963392;28;20066;-83
2023/05/30 01:04:00;;;;;;;7.43;3.30;;;;;;;12.36;82.16;102600.69;4973291;28;20038;-83
2023/05/30 01:06:30;;;;;;;9.32;3.35;;;;;;;12.48;81.81;102610.28;4981333;28;20826;-83
2023/05/30 01:08:59;;;;;;;12.05;4.50;;;;;;;12.43;81.67;102599.28;4978681;28;20568;-83
2023/05/30 01:11:57;;;;;;;11.10;3.03;;;;;;;12.31;83.99;102603.72;4989096;28;20513;-83
2023/05/30 01:14:30;;;;;;;10.93;3.08;;;;;;;12.28;82.86;102607.22;4978248;28;20042;-83
2023/05/30 01:17:04;;;;;;;14.15;2.95;;;;;;;12.39;84.89;102599.97;4975532;28;20041;-83
2023/05/30 01:19:54;;;;;;;6.93;2.95;;;;;;;12.19;85.89;102600.88;4983436;28;20671;-83
2023/05/30 01:23:00;;;;;;;12.77;4.03;;;;;;;12.29;83.15;102605.22;4979355;28;20034;-83
2023/05/30 01:25:48;;;;;;;7.30;2.83;;;;;;;12.11;86.09;102605.41;4999431;28;20475;-83
2023/05/30 01:28:21;;;;;;;12.30;3.17;;;;;;;11.79;87.83;102604.22;4981450;28;20027;-83
2023/05/30 01:30:49;;;;;;;9.90;2.60;;;;;;;12.05;84.71;102608.78;4994673;28;20072;-84
2023/05/30 01:33:16;;;;;;;10.65;3.15;;;;;;;12.23;84.94;102609.41;4984104;28;20030;-84
2023/05/30 01:35:46;;;;;;;7.95;3.03;;;;;;;12.30;82.90;102607.69;4978245;28;20311;-84
2023/05/30 01:38:12;;;;;;;10.75;3.40;;;;;;;12.40;84.02;102610.06;4983014;28;20544;-84
2023/05/30 01:40:39;;;;;;;12.35;3.33;;;;;;;12.04;84.62;102601.53;4975006;28;20067;-84
2023/05/30 01:43:41;;;;;;;9.68;3.03;;;;;;;12.34;82.77;102608.63;4978067;28;20080;-84
2023/05/30 01:46:25;;;;;;;7.88;2.63;;;;;;;12.38;82.73;102609.59;4984309;28;20039;-84
2023/05/30 01:49:23;;;;;;;10.15;2.47;;;;;;;12.30;83.28;102610.50;4980237;28;20429;-84
2023/05/30 01:51:58;;;;;;;6.32;3.00;;;;;;;12.14;84.51;102601.09;4978738;28;20502;-84
2023/05/30 01:54:25;;;;;;;7.55;3.47;;;;;;;12.16;84.31;102616.44;4982052;28;20064;-84
2023/05/30 01:56:54;;;;;;;8.27;3.72;;;;;;;12.05;86.47;102617.22;4994051;28;20172;-84
2023/05/30 01:59:21;;;;;;;9.60;2.95;;;;;;;12.31;83.70;102628.16;4981327;28;20505;-84
2023/05/30 02:01:47;;;;;;;7.40;3.47;;;;;;;12.26;83.99;102625.59;4984253;28;20026;-84
2023/05/30 02:04:12;;;;;;;9.77;3.90;;;;;;;12.45;82.71;102627.84;4982456;28;20567;-84
2023/05/30 02:06:38;;;;;;;8.63;2.85;;;;;;;12.47;82.68;102625.50;4992550;28;20187;-84
2023/05/30 02:09:06;;;;;;;8.20;3.20;;;;;;;12.55;83.09;102621.78;4989661;28;20189;-84
2023/05/30 02:11:32;;;;;;;8.38;3.60;;;;;;;12.43;82.79;102618.94;4984231;28;20034;-84
2023/05/30 02:14:00;;;;;;;11.88;3.63;;;;;;;12.23;85.26;102621.50;4982733;28;20038;-84
2023/05/30 02:16:26;;;;;;;7.20;3.00;;;;;;;12.13;86.50;102625.53;4990724;28;20048;-84
2023/05/30 02:18:52;;;;;;;11.98;2.75;;;;;;;11.81;87.67;102621.53;4982606;28;20480;-84
2023/05/30 02:21:18;;;;;;;7.30;3.17;;;;;;;12.03;87.38;102619.53;4973920;28;20042;-84
2023/05/30 02:23:43;;;;;;;11.52;3.33;;;;;;;11.83;88.83;102609.94;4978758;28;20376;-84
2023/05/30 02:26:09;;;;;;;7.88;3.50;;;;;;;12.15;85.23;102613.97;4975614;28;20042;-84
2023/05/30 02:28:34;;;;;;;6.88;2.70;;;;;;;12.37;84.00;102627.59;4976911;28;20070;-84
2023/05/30 02:31:01;;;;;;;8.10;3.25;;;;;;;12.17;85.78;102631.28;4979100;28;20463;-83
2023/05/30 02:33:26;;;;;;;9.88;3.60;;;;;;;12.34;86.75;102622.69;4994316;28;20041;-84
2023/05/30 02:35:52;;;;;;;7.03;3.03;;;;;;;12.14;86.81;102615.13;4975001;28;20038;-84
2023/05/30 02:38:17;;;;;;;9.00;4.32;;;;;;;12.13;86.81;102619.13;4976215;28;20141;-84
2023/05/30 02:40:42;;;;;;;11.43;4.43;;;;;;;12.17;87.21;102634.09;4987086;28;20477;-84
2023/05/30 02:43:08;;;;;;;7.82;3.45;;;;;;;11.85;89.20;102627.25;4975370;28;20055;-84
2023/05/30 02:45:33;;;;;;;7.28;3.70;;;;;;;11.84;88.91;102634.06;4986893;28;20030;-84
2023/05/30 02:47:58;;;;;;;7.30;3.35;;;;;;;11.90;86.41;102625.09;4979573;28;20034;-84
2023/05/30 02:50:24;;;;;;;10.15;3.90;;;;;;;11.89;87.86;102640.31;4978452;28;20109;-84
2023/05/30 02:52:49;;;;;;;10.27;3.72;;;;;;;11.71;87.66;102636.78;4975545;28;20181;-83
2023/05/30 02:55:15;;;;;;;8.10;4.25;;;;;;;11.95;86.24;102638.94;4977922;28;20728;-84
2023/05/30 02:57:40;;;;;;;10.00;3.40;;;;;;;11.97;84.48;102642.22;4979138;28;20174;-84
2023/05/30 03:00:07;;;;;;;13.40;5.15;;;;;;;12.13;84.71;102644.38;4975855;28;20136;-84
2023/05/30 03:02:34;;;;;;;9.85;4.30;;;;;;;11.84;85.69;102659.31;4976246;28;20455;-84
2023/05/30 03:04:59;;;;;;;9.55;4.28;;;;;;;11.89;85.73;102645.94;4980961;28;20026;-84
2023/05/30 03:07:26;;;;;;;5.85;3.50;;;;;;;11.59;89.09;102647.94;4980795;28;20040;-84
2023/05/30 03:09:52;;;;;;;12.65;4.25;;;;;;;11.60;86.86;102647.59;4973689;28;20085;-84
2023/05/30 03:12:19;;;;;;;8.10;3.70;;;;;;;11.99;84.94;102653.94;4975506;28;20780;-84
2023/05/30 03:14:45;;;;;;;8.18;3.70;;;;;;;11.98;85.13;102666.31;4977776;28;20034;-84
2023/05/30 03:17:10;;;;;;;7.50;3.42;;;;;;;11.89;85.43;102656.31;4981156;28;20406;-84
2023/05/30 03:19:36;;;;;;;5.22;3.17;;;;;;;11.74;86.74;102654.91;4987244;28;20077;-83
2023/05/30 03:22:01;;;;;;;8.40;3.10;;;;;;;11.49;87.10;102657.59;4985122;28;20026;-84
2023/05/30 03:24:29;;;;;;;6.22;2.97;;;;;;;11.34;88.65;102655.38;4990183;28;20080;-84
2023/05/30 03:26:54;;;;;;;7.10;3.22;;;;;;;11.68;85.93;102659.09;4982105;28;20041;-84
2023/05/30 03:29:20;;;;;;;8.13;3.85;;;;;;;11.48;87.05;102664.34;4980913;28;20042;-84
2023/05/30 03:31:46;;;;;;;7.72;3.35;;;;;;;11.84;84.14;102654.50;4986179;28;20026;-84
2023/05/30 03:34:11;;;;;;;10.55;3.13;;;;;;;11.68;86.30;102661.91;4990866;28;20026;-84
2023/05/30 03:36:38;;;;;;;10.43;4.25;;;;;;;11.58;87.49;102663.16;4981251;28;20018;-84
2023/05/30 03:39:04;;;;;;;7.63;2.63;;;;;;;11.69;87.32;102663.56;4979906;28;20224;-84
2023/05/30 03:41:29;;;;;;;4.88;3.35;;;;;;;12.07;83.92;102665.41;5012050;28;20126;-84
2023/05/30 03:43:55;;;;;;;7.13;3.78;;;;;;;11.95;84.07;102658.59;4985311;28;20470;-84
2023/05/30 03:46:21;;;;;;;7.65;3.83;;;;;;;11.98;85.57;102665.50;4981682;28;20030;-84
2023/05/30 03:48:47;;;;;;;8.27;3.85;;;;;;;11.99;84.91;102673.56;4991030;28;20030;-84
2023/05/30 03:51:12;;;;;;;5.50;3.38;;;;;;;11.95;84.44;102664.19;4984476;28;20406;-83
2023/05/30 03:53:38;;;;;;;7.20;2.85;;;;;;;12.13;83.70;102678.88;4988573;28;20034;-84
2023/05/30 03:56:04;;;;;;;10.98;3.60;;;;;;;12.25;83.52;102680.06;4968758;28;20080;-83
2023/05/30 03:58:29;;;;;;;6.40;2.95;;;;;;;12.13;83.48;102684.50;4970700;28;20534;-84
2023/05/30 04:00:55;;;;;;;6.10;3.15;;;;;;;12.29;82.43;102681.03;4974223;28;20089;-83
2023/05/30 04:03:20;;;;;;;6.38;3.47;;;;;;;11.91;84.86;102682.88;4977423;28;20502;-83
2023/05/30 04:05:49;;;;;;;7.38;3.00;;;;;;;12.03;83.52;102673.69;4983896;28;20023;-83
2023/05/30 04:08:14;;;;;;;5.22;3.00;;;;;;;12.00;83.22;102678.00;4979758;28;20113;-83
2023/05/30 04:10:40;;;;;;;5.50;2.83;;;;;;;12.09;84.84;102682.72;4978180;28;20034;-83
2023/05/30 04:13:06;;;;;;;9.10;3.33;;;;;;;12.28;81.90;102674.59;4993377;28;20504;-83
2023/05/30 04:15:32;;;;;;;5.43;2.78;;;;;;;12.17;83.53;102670.59;4963521;28;20862;-84
2023/05/30 04:17:58;;;;;;;7.53;2.95;;;;;;;11.97;83.61;102673.09;4969595;28;20396;-84
2023/05/30 04:20:24;;;;;;;6.20;3.08;;;;;;;12.34;81.92;102678.84;4984165;28;20044;-83
2023/05/30 04:22:49;;;;;;;7.57;3.15;;;;;;;11.91;86.53;102671.66;4979004;28;20068;-83
2023/05/30 04:25:16;;;;;;;7.50;3.22;;;;;;;11.92;85.74;102670.47;4980773;28;20487;-83
2023/05/30 04:27:43;;;;;;;10.18;3.92;;;;;;;12.00;84.45;102678.00;5009635;28;20620;-83
2023/05/30 04:30:10;;;;;;;13.07;3.40;;;;;;;12.11;86.00;102680.41;4985063;28;20037;-83
2023/05/30 04:32:35;;;;;;;7.20;3.72;;;;;;;12.21;84.29;102685.59;4979230;28;20509;-83
2023/05/30 04:35:04;;;;;;;6.60;3.53;;;;;;;12.15;85.39;102675.72;4972932;28;20038;-83
2023/05/30 04:37:30;;;;;;;9.50;3.90;;;;;;;11.98;84.60;102677.53;4975228;28;20058;-84
2023/05/30 04:39:58;;;;;;;8.20;3.50;;;;;;;11.90;86.12;102670.00;4981394;28;20069;-83
2023/05/30 04:42:28;;;;;;;5.35;4.28;;;;;;;11.92;86.35;102669.66;4973512;28;20030;-83
2023/05/30 04:44:54;;;;;;;10.40;3.53;;;;;;;12.10;84.11;102673.13;4978033;28;20061;-83
2023/05/30 04:47:21;;;;;;;11.73;4.60;;;;;;;11.89;86.25;102685.22;4971638;28;20436;-83
2023/05/30 04:49:47;;;;;;;10.85;3.63;;;;;;;12.10;85.34;102695.56;4978053;28;20042;-83
2023/05/30 04:52:12;;;;;;;8.52;3.15;;;;;;;11.96;86.56;102685.47;4972979;28;20025;-83
2023/05/30 04:54:38;;;;;;;7.82;3.30;;;;;;;11.92;86.35;102673.28;4986094;28;20050;-83
2023/05/30 04:57:04;;;;;;;5.50;2.70;;;;;;;12.29;84.01;102678.22;4973325;28;20311;-84
2023/05/30 04:59:30;;;;;;;9.02;3.95;;;;;;;12.20;83.81;102667.09;4967247;28;20081;-83
2023/05/30 05:01:56;;;;;;;9.15;3.15;;;;;;;12.35;81.90;102674.03;4967611;28;20035;-83
2023/05/30 05:04:22;;;;;;;9.45;2.88;;;;;;;12.28;82.97;102668.16;4960553;28;20049;-83
2023/05/30 05:06:47;;;;;;;5.70;3.38;;;;;;;12.18;85.02;102686.25;4970049;28;20527;-84
2023/05/30 05:09:13;;;;;;;7.53;3.25;;;;;;;12.20;83.82;102678.31;4969579;28;20111;-83
2023/05/30 05:11:38;;;;;;;8.07;3.83;;;;;;;12.07;84.77;102679.44;4965757;28;20443;-84
2023/05/30 05:14:04;;;;;;;10.80;3.50;;;;;;;12.22;84.17;102670.38;4965788;28;20042;-84
2023/05/30 05:16:29;;;;;;;9.20;3.50;;;;;;;11.93;85.83;102686.16;4979740;28;20045;-84
2023/05/30 05:18:55;;;;;;;8.20;3.33;;;;;;;11.98;85.82;102682.31;4966250;28;20026;-84
2023/05/30 05:21:20;;;;;;;10.60;3.33;;;;;;;12.03;85.08;102682.09;4979331;28;20078;-83
2023/05/30 05:23:45;;;;;;;5.47;3.08;;;;;;;12.16;84.05;102680.16;4974205;28;20034;-83
2023/05/30 05:26:11;;;;;;;5.82;3.50;;;;;;;12.40;81.50;102687.88;4967671;28;20046;-83
2023/05/30 05:28:36;;;;;;;8.85;3.80;;;;;;;12.25;83.27;102680.06;4973298;28;20495;-83
2023/05/30 05:31:01;;;;;;;8.55;3.85;;;;;;;12.11;83.45;102692.44;4971770;28;20045;-83
2023/05/30 05:33:27;;;;;;;6.22;3.80;;;;;;;12.20;82.75;102683.94;4976613;28;20052;-83
2023/05/30 05:35:52;;;;;;;4.28;3.03;;;;;;;12.43;81.14;102686.34;4974966;28;20446;-83
2023/05/30 05:38:18;;;;;;;10.85;4.55;;;;;;;12.04;84.29;102677.31;4978638;28;20181;-83
2023/05/30 05:40:43;;;;;;;6.82;3.50;;;;;;;11.90;85.64;102670.00;4973233;28;20026;-84
2023/05/30 05:43:09;;;;;;;10.82;3.88;;;;;;;12.30;82.96;102686.31;4973467;28;20257;-83
2023/05/30 05:45:34;;;;;;;12.60;4.97;;;;;;;12.35;84.25;102691.72;4969653;28;20034;-84
2023/05/30 05:48:00;;;;;;;8.25;3.55;;;;;;;12.05;87.14;102684.56;4975917;28;22186;-84
2023/05/30 05:50:25;;;;;;;14.63;4.18;;;;;;;12.17;84.02;102685.44;4970191;28;20027;-84
2023/05/30 05:52:51;;;;;;;7.82;3.22;;;;;;;12.22;83.47;102681.59;4976973;28;20487;-84
2023/05/30 05:55:16;;;;;;;8.55;3.90;;;;;;;12.36;83.06;102690.53;4971772;28;20026;-83
2023/05/30 05:57:41;;;;;;;7.50;3.20;;;;;;;12.35;82.77;102688.91;4965121;28;20042;-84
2023/05/30 06:00:08;;;;;;;12.15;3.53;;;;;;;12.43;83.78;102689.16;4971076;28;20039;-83
2023/05/30 06:02:33;;;;;;;10.10;4.22;;;;;;;12.40;82.97;102697.09;4972843;28;20897;-84
2023/05/30 06:04:58;;;;;;;8.52;3.63;;;;;;;12.75;83.19;102699.53;4974325;28;20026;-84
2023/05/30 06:07:24;;;;;;;7.85;3.92;;;;;;;13.61;80.69;102710.81;4967711;28;20053;-83
2023/05/30 06:09:50;;;;;;;11.23;4.35;;;;;;;12.50;82.60;102700.63;4976078;28;20391;-82
2023/05/30 06:12:15;;;;;;;8.50;3.63;;;;;;;12.55;84.24;102706.06;4970204;28;20105;-81
2023/05/30 06:14:41;;;;;;;21.25;4.70;;;;;;;12.55;82.36;102697.63;4972917;28;20042;-81
2023/05/30 06:17:07;;;;;;;9.00;3.78;;;;;;;12.81;82.36;102703.75;4966675;28;20153;-82
2023/05/30 06:19:32;;;;;;;9.55;3.38;;;;;;;14.08;75.85;102695.31;4969709;28;20046;-81
2023/05/30 06:21:58;;;;;;;7.53;3.70;;;;;;;13.00;79.64;102700.38;4964564;28;20023;-81
2023/05/30 06:24:23;;;;;;;8.40;4.15;;;;;;;12.60;81.55;102703.00;4978776;28;20030;-81
2023/05/30 06:26:48;;;;;;;7.93;3.55;;;;;;;12.78;81.67;102681.97;4973397;28;20030;-80
2023/05/30 06:29:14;;;;;;;11.45;4.47;;;;;;;12.72;81.13;102699.41;4977203;28;20034;-80
2023/05/30 06:31:39;;;;;;;9.85;3.95;;;;;;;12.80;80.99;102706.94;4987366;28;20374;-80
2023/05/30 06:34:04;;;;;;;6.25;4.05;;;;;;;12.67;81.49;102705.25;4977323;28;20371;-81
2023/05/30 06:36:31;;;;;;;9.80;4.03;;;;;;;12.59;80.35;102713.44;4977922;28;20077;-81
2023/05/30 06:38:56;;;;;;;11.23;4.28;;;;;;;12.59;81.43;102698.56;4981199;28;20490;-81
2023/05/30 06:41:22;;;;;;;14.75;4.00;;;;;;;12.66;81.72;102707.25;4979036;28;20026;-81
2023/05/30 06:43:48;;;;;;;9.98;3.42;;;;;;;12.65;81.78;102702.81;4993177;28;20034;-81
2023/05/30 06:46:13;;;;;;;9.20;3.90;;;;;;;12.94;79.73;102696.16;4975962;28;20030;-81
2023/05/30 06:48:39;;;;;;;10.68;4.30;;;;;;;13.02;81.32;102697.22;4995437;28;20034;-81
2023/05/30 06:51:06;;;;;;;12.82;4.93;;;;;;;13.10;80.62;102693.47;4980366;28;20089;-81
2023/05/30 06:53:32;;;;;;;13.65;3.78;;;;;;;13.13;79.39;102692.75;4996153;28;20031;-81
2023/05/30 06:55:57;;;;;;;9.45;3.47;;;;;;;13.16;79.91;102699.69;4982172;28;20401;-81
2023/05/30 06:58:22;;;;;;;13.13;4.43;;;;;;;13.15;81.77;102700.84;4981081;28;20490;-81
2023/05/30 07:00:48;;;;;;;7.05;2.97;;;;;;;12.81;80.39;102691.69;4991305;28;20046;-80
2023/05/30 07:03:13;;;;;;;7.45;3.53;;;;;;;12.96;79.86;102693.00;5005013;28;20114;-81
2023/05/30 07:05:38;;;;;;;5.25;3.63;;;;;;;12.87;80.40;102697.91;4970644;28;20027;-81
2023/05/30 07:08:04;;;;;;;5.85;3.10;;;;;;;13.14;79.83;102699.22;4994543;28;20434;-81
2023/05/30 07:10:29;;;;;;;12.60;4.63;;;;;;;13.36;79.10;102695.13;4979139;28;20488;-80
2023/05/30 07:12:54;;;;;;;12.88;4.07;;;;;;;13.14;79.78;102705.66;4979593;28;20030;-81
2023/05/30 07:15:20;;;;;;;9.18;4.10;;;;;;;13.14;79.57;102704.84;4975694;28;20026;-81
2023/05/30 07:17:45;;;;;;;13.25;4.63;;;;;;;13.04;80.27;102700.50;4977889;28;20057;-81
2023/05/30 07:20:11;;;;;;;12.23;4.00;;;;;;;13.19;79.89;102705.41;4983516;28;20428;-81
2023/05/30 07:22:38;;;;;;;10.52;3.90;;;;;;;13.14;80.62;102699.22;4989723;28;20480;-81
2023/05/30 07:25:04;;;;;;;6.03;3.28;;;;;;;13.46;78.45;102710.72;4990944;28;20041;-81
2023/05/30 07:27:30;;;;;;;10.25;4.43;;;;;;;13.37;81.47;102702.41;4984221;28;20030;-81
2023/05/30 07:29:55;;;;;;;4.95;3.58;;;;;;;13.31;80.28;102703.81;4990359;28;20397;-81
2023/05/30 07:32:21;;;;;;;8.02;3.40;;;;;;;13.30;79.09;102703.00;4974322;28;20026;-81
2023/05/30 07:34:47;;;;;;;9.10;4.47;;;;;;;13.27;79.43;102709.28;4976253;28;20054;-80
2023/05/30 07:37:12;;;;;;;14.40;3.83;;;;;;;13.46;79.88;102707.91;4979688;28;20034;-80
2023/05/30 07:39:37;;;;;;;6.25;4.25;;;;;;;13.44;78.08;102716.69;4980408;28;20030;-81
2023/05/30 07:42:03;;;;;;;5.38;3.85;;;;;;;13.58;77.75;102711.53;4978086;28;20019;-81
2023/05/30 07:44:28;;;;;;;6.75;3.42;;;;;;;13.69;76.91;102714.66;4989831;28;20046;-79
2023/05/30 07:46:54;;;;;;;11.38;3.67;;;;;;;13.32;79.07;102716.69;4989263;28;20030;-80
2023/05/30 07:49:20;;;;;;;8.50;3.75;;;;;;;13.52;78.72;102715.75;4978077;28;20284;-80
2023/05/30 07:51:46;;;;;;;11.63;3.95;;;;;;;13.50;79.24;102706.03;4980669;28;20034;-80
2023/05/30 07:54:11;;;;;;;6.40;3.70;;;;;;;13.58;79.73;102713.53;4983396;28;20250;-80
2023/05/30 07:56:36;;;;;;;8.40;3.38;;;;;;;13.65;79.02;102710.91;4983257;28;20026;-80
2023/05/30 07:59:02;;;;;;;13.20;4.03;;;;;;;13.62;78.93;102718.09;4982718;28;20495;-81
2023/05/30 08:01:28;;;;;;;11.63;4.35;;;;;;;13.32;80.18;102708.25;4976698;28;20026;-80
2023/05/30 08:03:53;;;;;;;6.72;3.42;;;;;;;13.74;78.49;102716.41;4983196;28;20484;-80
2023/05/30 08:06:19;;;;;;;14.30;4.20;;;;;;;13.66;78.45;102715.38;4998778;28;20076;-80
2023/05/30 08:08:46;;;;;;;11.25;3.83;;;;;;;13.53;79.68;102711.75;5000731;28;20157;-80
2023/05/30 08:11:11;;;;;;;9.63;3.60;;;;;;;13.69;79.75;102719.47;4997408;28;20031;-81
2023/05/30 08:13:37;;;;;;;10.48;4.22;;;;;;;13.56;79.07;102716.69;4984913;28;20609;-80
2023/05/30 08:16:02;;;;;;;5.55;3.55;;;;;;;13.57;78.81;102711.88;4980599;28;20030;-80
2023/05/30 08:18:30;;;;;;;7.45;3.67;;;;;;;13.65;78.20;102715.75;4988276;28;20030;-81
2023/05/30 08:20:56;;;;;;;5.28;3.28;;;;;;;13.81;78.07;102711.03;5008212;28;20073;-80
2023/05/30 08:23:21;;;;;;;9.90;3.63;;;;;;;14.00;79.08;102719.63;5001455;28;20111;-80
2023/05/30 08:25:47;;;;;;;8.73;3.95;;;;;;;13.79;80.04;102714.19;4980043;28;20026;-80
2023/05/30 08:28:12;;;;;;;7.65;3.38;;;;;;;13.73;81.43;102714.78;4990655;28;20364;-81
2023/05/30 08:30:40;;;;;;;9.70;3.70;;;;;;;13.61;81.97;102713.63;4983961;28;20414;-80
2023/05/30 08:33:07;;;;;;;10.55;3.72;;;;;;;13.99;79.30;102712.34;4978773;28;20030;-80
2023/05/30 08:35:33;;;;;;;15.32;4.70;;;;;;;13.75;80.20;102710.44;4978614;28;20493;-80
2023/05/30 08:37:59;;;;;;;13.85;3.53;;;;;;;13.92;80.46;102705.72;4986647;28;20022;-81
2023/05/30 08:40:25;;;;;;;7.35;3.22;;;;;;;13.83;79.96;102705.84;4979714;28;20084;-80
2023/05/30 08:42:51;;;;;;;5.28;3.47;;;;;;;13.76;81.99;102700.00;4982392;28;20113;-80
2023/05/30 08:45:16;;;;;;;7.63;3.35;;;;;;;13.83;83.75;102700.22;4979819;28;20069;-80
2023/05/30 08:47:42;;;;;;;9.43;3.22;;;;;;;13.91;83.56;102702.06;4981955;28;20053;-80
2023/05/30 08:50:09;;;;;;;13.02;5.47;;;;;;;13.96;81.61;102710.25;4995808;28;20072;-80
2023/05/30 08:52:38;;;;;;;3.72;3.10;;;;;;;13.77;83.64;102704.47;4999067;28;20030;-80
2023/05/30 08:55:22;;;;;;;7.18;3.30;;;;;;;13.82;83.07;102701.38;4976457;28;20133;-80
2023/05/30 08:58:12;;;;;;;5.25;2.90;;;;;;;14.02;82.10;102699.56;4982530;28;20037;-81
2023/05/30 09:00:38;;;;;;;5.55;2.78;;;;;;;14.25;80.23;102699.81;4984617;28;20462;-80
2023/05/30 09:03:08;;;;;;;7.25;2.95;;;;;;;14.21;80.68;102699.72;4980128;28;20033;-81
2023/05/30 09:05:35;;;;;;;6.47;2.97;;;;;;;14.14;81.72;102701.50;4980397;28;20045;-80
2023/05/30 09:08:02;;;;;;;7.25;3.17;;;;;;;14.18;81.71;102702.44;4986128;28;20033;-80
2023/05/30 09:10:28;;;;;;;6.72;3.13;;;;;;;14.05;82.59;102700.84;4974743;28;20352;-80
2023/05/30 09:12:53;;;;;;;5.10;3.33;;;;;;;14.17;82.35;102695.19;4976550;28;20026;-80
2023/05/30 09:15:19;;;;;;;5.07;2.35;;;;;;;14.41;80.70;102706.31;5001716;28;20041;-80
2023/05/30 09:17:45;;;;;;;7.25;3.38;;;;;;;14.17;82.65;102703.63;4983634;28;20034;-80
2023/05/30 09:20:19;;;;;;;4.88;3.40;;;;;;;14.07;83.59;102702.13;4980302;28;20418;-80
2023/05/30 09:22:45;;;;;;;10.38;3.78;;;;;;;13.65;85.68;102696.84;4987051;28;20081;-80
2023/05/30 09:25:14;;;;;;;4.60;2.97;;;;;;;14.08;83.73;102697.31;4979211;28;20037;-80
2023/05/30 09:27:42;;;;;;;9.77;3.33;;;;;;;14.26;82.94;102700.66;4989882;28;20436;-80
2023/05/30 09:30:11;;;;;;;10.82;4.72;;;;;;;14.22;84.90;102692.91;4977495;28;20022;-81
2023/05/30 09:32:38;;;;;;;5.07;3.08;;;;;;;14.14;84.85;102695.88;4985161;28;20356;-80
2023/05/30 09:35:06;;;;;;;8.65;3.70;;;;;;;14.36;83.41;102695.31;4980857;28;20026;-80
2023/05/30 09:37:40;;;;;;;6.85;2.53;;;;;;;14.48;83.06;102702.06;4982370;28;20035;-82
2023/05/30 09:40:11;;;;;;;7.75;4.70;;;;;;;14.40;83.77;102693.41;4972542;28;20174;-81
2023/05/30 09:42:41;;;;;;;9.25;3.50;;;;;;;14.53;83.28;102696.16;4978044;28;20049;-81
2023/05/30 09:45:09;;;;;;;6.22;3.05;;;;;;;14.33;84.05;102704.47;4978365;28;20489;-80
2023/05/30 09:47:45;;;;;;;7.32;3.15;;;;;;;13.98;85.55;102704.28;4975122;28;20057;-81
2023/05/30 09:50:12;;;;;;;7.25;3.40;;;;;;;14.35;83.88;102707.75;4989033;28;20030;-81
2023/05/30 09:52:38;;;;;;;6.40;3.30;;;;;;;14.48;83.86;102699.25;4994087;28;20121;-81
2023/05/30 09:55:06;;;;;;;5.57;3.28;;;;;;;14.47;83.51;102700.44;4973973;28;20038;-81
2023/05/30 09:57:36;;;;;;;4.55;3.42;;;;;;;14.28;85.34;102701.94;4980015;28;20431;-81
2023/05/30 10:00:12;;;;;;;5.80;3.50;;;;;;;14.27;84.55;102708.72;4982729;28;20395;-81
2023/05/30 10:02:54;;;;;;;6.63;3.83;;;;;;;14.07;85.36;102709.75;4986348;28;20026;-81
2023/05/30 10:05:20;;;;;;;7.22;3.67;;;;;;;14.46;84.43;102705.22;4985886;28;20041;-81
2023/05/30 10:07:48;;;;;;;3.60;2.90;;;;;;;14.50;84.48;102708.16;4983507;28;20030;-81
2023/05/30 10:10:14;;;;;;;6.63;3.83;;;;;;;14.46;85.98;102710.84;4998593;28;20038;-81
2023/05/30 10:12:42;;;;;;;7.03;3.50;;;;;;;14.20;86.18;102700.88;4980513;28;20042;-80
2023/05/30 10:15:09;;;;;;;7.40;3.53;;;;;;;14.48;83.40;102708.50;4978914;28;20035;-81
2023/05/30 10:17:38;;;;;;;4.53;3.55;;;;;;;14.48;84.01;102704.88;4992154;28;20030;-80
2023/05/30 10:20:09;;;;;;;6.68;2.88;;;;;;;14.69;84.09;102713.94;4976208;28;20076;-80
2023/05/30 10:22:42;;;;;;;9.32;3.45;;;;;;;14.61;84.59;102695.22;4973491;28;20077;-80
2023/05/30 10:25:08;;;;;;;9.85;3.90;;;;;;;14.52;85.21;102700.16;4989629;28;20026;-80
2023/05/30 10:27:46;;;;;;;6.97;3.17;;;;;;;14.58;85.35;102693.09;4984532;28;20517;-81
2023/05/30 10:30:13;;;;;;;7.75;2.88;;;;;;;14.88;84.20;102701.94;4979055;28;20030;-80
2023/05/30 10:32:53;;;;;;;4.07;2.75;;;;;;;14.80;84.21;102709.41;4993826;28;20732;-80
2023/05/30 10:35:22;;;;;;;6.93;2.83;;;;;;;14.68;83.41;102701.03;4973124;28;20075;-80
2023/05/30 10:37:49;;;;;;;5.07;2.83;;;;;;;14.83;84.63;102697.41;4979641;28;20038;-80
2023/05/30 10:40:18;;;;;;;5.72;2.90;;;;;;;14.68;85.06;102692.56;4981636;28;20057;-80
2023/05/30 10:42:53;;;;;;;6.47;3.60;;;;;;;14.79;83.06;102698.50;4985744;28;20157;-80
2023/05/30 10:45:26;;;;;;;5.53;2.90;;;;;;;14.76;84.19;102693.59;4978427;28;20130;-81
2023/05/30 10:48:10;;;;;;;3.65;3.25;;;;;;;14.59;84.79;102689.13;4980060;28;20034;-80
2023/05/30 10:50:42;;;;;;;7.13;4.40;;;;;;;14.74;84.76;102681.88;4978551;28;20025;-80
2023/05/30 10:53:15;;;;;;;4.95;4.18;;;;;;;14.86;83.54;102680.94;4981567;28;20446;-80
2023/05/30 10:55:42;;;;;;;4.18;3.30;;;;;;;14.76;84.86;102691.59;4975628;28;20026;-80
2023/05/30 10:58:38;;;;;;;8.25;3.92;;;;;;;14.75;84.13;102692.75;4973088;28;20038;-80
2023/05/30 11:01:24;;;;;;;6.05;3.42;;;;;;;14.94;84.83;102689.22;4970925;28;20064;-80
2023/05/30 11:03:57;;;;;;;9.23;3.92;;;;;;;14.83;85.30;102690.94;5005848;28;20108;-80
2023/05/30 11:06:25;;;;;;;9.52;4.18;;;;;;;14.76;86.35;102694.41;4988884;28;20048;-80
2023/05/30 11:08:53;;;;;;;7.47;3.42;;;;;;;14.88;83.08;102687.03;4984662;28;20030;-80
2023/05/30 11:11:19;;;;;;;5.78;3.05;;;;;;;14.93;83.98;102675.50;4973680;28;20498;-81
2023/05/30 11:13:47;;;;;;;4.70;3.33;;;;;;;14.57;87.42;102685.84;4976900;28;20368;-81
2023/05/30 11:16:25;;;;;;;5.22;2.95;;;;;;;14.86;86.21;102686.56;4973603;28;20514;-80
2023/05/30 11:18:54;;;;;;;4.28;2.60;;;;;;;14.82;86.31;102666.75;4977179;28;20030;-81
2023/05/30 11:21:57;;;;;;;7.50;3.30;;;;;;;14.72;85.45;102676.56;4975231;28;20038;-81
2023/05/30 11:24:23;;;;;;;3.30;2.60;;;;;;;14.69;84.97;102677.28;4977740;28;20493;-81
2023/05/30 11:27:06;;;;;;;3.97;2.35;;;;;;;14.83;84.16;102676.84;4975882;28;20038;-80